sensor_id;sensor_type;location;lat;lon;timestamp;P1;durP1;ratioP1;P2;durP2;ratioP2
44426;SDS011;30133;47.866;-4.222;2022-12-07T00:01:13;11.50;;;5.93;;
44426;SDS011;30133;47.866;-4.222;2022-12-07T00:03:42;7.97;;;5.40;;
44426;SDS011;30133;47.866;-4.222;2022-12-07T00:06:11;8.95;;;5.25;;
44426;SDS011;30133;47.866;-4.222;2022-12-07T00:08:39;8.60;;;5.00;;
44426;SDS011;30133;47.866;-4.222;2022-12-07T00:11:08;7.93;;;4.80;;
44426;SDS011;30133;47.866;-4.222;2022-12-07T00:13:41;8.65;;;5.40;;
44426;SDS011;30133;47.866;-4.222;2022-12-07T00:16:17;8.43;;;5.13;;
44426;SDS011;30133;47.866;-4.222;2022-12-07T00:18:45;8.05;;;4.88;;
44426;SDS011;30133;47.866;-4.222;2022-12-07T00:21:13;10.15;;;5.70;;
44426;SDS011;30133;47.866;-4.222;2022-12-07T00:23:42;9.40;;;5.68;;
44426;SDS011;30133;47.866;-4.222;2022-12-07T00:26:11;10.70;;;5.70;;
44426;SDS011;30133;47.866;-4.222;2022-12-07T00:28:41;7.07;;;4.22;;
44426;SDS011;30133;47.866;-4.222;2022-12-07T00:31:13;10.05;;;5.53;;
44426;SDS011;30133;47.866;-4.222;2022-12-07T00:33:41;8.52;;;5.78;;
44426;SDS011;30133;47.866;-4.222;2022-12-07T00:36:08;8.48;;;5.05;;
44426;SDS011;30133;47.866;-4.222;2022-12-07T00:38:40;9.00;;;5.53;;
44426;SDS011;30133;47.866;-4.222;2022-12-07T00:41:13;7.90;;;5.18;;
44426;SDS011;30133;47.866;-4.222;2022-12-07T00:43:46;10.48;;;5.18;;
44426;SDS011;30133;47.866;-4.222;2022-12-07T00:46:14;8.50;;;5.20;;
44426;SDS011;30133;47.866;-4.222;2022-12-07T00:48:41;8.73;;;4.85;;
44426;SDS011;30133;47.866;-4.222;2022-12-07T00:51:09;7.72;;;4.85;;
44426;SDS011;30133;47.866;-4.222;2022-12-07T00:53:42;8.10;;;4.50;;
44426;SDS011;30133;47.866;-4.222;2022-12-07T00:56:09;9.82;;;5.75;;
44426;SDS011;30133;47.866;-4.222;2022-12-07T00:58:48;9.55;;;5.78;;
44426;SDS011;30133;47.866;-4.222;2022-12-07T01:01:23;9.23;;;5.32;;
44426;SDS011;30133;47.866;-4.222;2022-12-07T01:03:52;7.65;;;5.05;;
44426;SDS011;30133;47.866;-4.222;2022-12-07T01:06:19;9.75;;;4.93;;
44426;SDS011;30133;47.866;-4.222;2022-12-07T01:08:46;6.85;;;4.78;;
44426;SDS011;30133;47.866;-4.222;2022-12-07T01:11:14;9.70;;;5.18;;
44426;SDS011;30133;47.866;-4.222;2022-12-07T01:13:43;10.13;;;5.68;;
44426;SDS011;30133;47.866;-4.222;2022-12-07T01:16:10;9.23;;;5.35;;
44426;SDS011;30133;47.866;-4.222;2022-12-07T01:18:40;8.73;;;4.80;;
44426;SDS011;30133;47.866;-4.222;2022-12-07T01:21:12;7.78;;;4.72;;
44426;SDS011;30133;47.866;-4.222;2022-12-07T01:23:46;7.55;;;4.05;;
44426;SDS011;30133;47.866;-4.222;2022-12-07T01:26:14;9.82;;;4.40;;
44426;SDS011;30133;47.866;-4.222;2022-12-07T01:28:44;7.68;;;4.97;;
44426;SDS011;30133;47.866;-4.222;2022-12-07T01:31:13;10.07;;;5.10;;
44426;SDS011;30133;47.866;-4.222;2022-12-07T01:33:44;7.60;;;4.95;;
44426;SDS011;30133;47.866;-4.222;2022-12-07T01:36:18;8.18;;;5.25;;
44426;SDS011;30133;47.866;-4.222;2022-12-07T01:38:57;9.27;;;5.07;;
44426;SDS011;30133;47.866;-4.222;2022-12-07T01:41:30;6.30;;;3.88;;
44426;SDS011;30133;47.866;-4.222;2022-12-07T01:46:52;9.10;;;5.05;;
44426;SDS011;30133;47.866;-4.222;2022-12-07T01:52:15;7.45;;;4.75;;
44426;SDS011;30133;47.866;-4.222;2022-12-07T01:55:20;8.02;;;5.05;;
44426;SDS011;30133;47.866;-4.222;2022-12-07T01:57:47;9.10;;;4.90;;
44426;SDS011;30133;47.866;-4.222;2022-12-07T02:00:17;7.32;;;4.68;;
44426;SDS011;30133;47.866;-4.222;2022-12-07T02:05:18;10.25;;;5.53;;
44426;SDS011;30133;47.866;-4.222;2022-12-07T02:07:53;8.00;;;4.65;;
44426;SDS011;30133;47.866;-4.222;2022-12-07T02:10:22;7.60;;;4.60;;
44426;SDS011;30133;47.866;-4.222;2022-12-07T02:13:13;7.32;;;5.00;;
44426;SDS011;30133;47.866;-4.222;2022-12-07T02:30:14;5.93;;;4.55;;
44426;SDS011;30133;47.866;-4.222;2022-12-07T02:35:49;8.32;;;4.75;;
44426;SDS011;30133;47.866;-4.222;2022-12-07T02:44:00;8.57;;;4.32;;
44426;SDS011;30133;47.866;-4.222;2022-12-07T02:46:44;7.20;;;4.78;;
44426;SDS011;30133;47.866;-4.222;2022-12-07T02:49:19;9.25;;;4.43;;
44426;SDS011;30133;47.866;-4.222;2022-12-07T02:51:49;7.97;;;4.47;;
44426;SDS011;30133;47.866;-4.222;2022-12-07T02:54:17;8.00;;;4.60;;
44426;SDS011;30133;47.866;-4.222;2022-12-07T03:02:38;9.15;;;5.15;;
44426;SDS011;30133;47.866;-4.222;2022-12-07T03:08:37;7.63;;;4.57;;
44426;SDS011;30133;47.866;-4.222;2022-12-07T03:11:17;6.95;;;4.85;;
44426;SDS011;30133;47.866;-4.222;2022-12-07T03:14:15;6.82;;;4.65;;
44426;SDS011;30133;47.866;-4.222;2022-12-07T03:16:56;9.00;;;5.20;;
44426;SDS011;30133;47.866;-4.222;2022-12-07T03:19:50;6.38;;;4.60;;
44426;SDS011;30133;47.866;-4.222;2022-12-07T03:22:20;8.52;;;4.38;;
44426;SDS011;30133;47.866;-4.222;2022-12-07T03:24:52;6.47;;;4.57;;
44426;SDS011;30133;47.866;-4.222;2022-12-07T03:27:27;9.13;;;4.80;;
44426;SDS011;30133;47.866;-4.222;2022-12-07T03:30:23;7.50;;;4.53;;
44426;SDS011;30133;47.866;-4.222;2022-12-07T03:36:50;8.18;;;4.82;;
44426;SDS011;30133;47.866;-4.222;2022-12-07T03:42:05;8.13;;;4.43;;
44426;SDS011;30133;47.866;-4.222;2022-12-07T03:44:33;7.10;;;4.72;;
44426;SDS011;30133;47.866;-4.222;2022-12-07T03:47:14;7.07;;;4.22;;
44426;SDS011;30133;47.866;-4.222;2022-12-07T03:49:56;7.00;;;4.70;;
44426;SDS011;30133;47.866;-4.222;2022-12-07T03:52:44;7.78;;;4.25;;
44426;SDS011;30133;47.866;-4.222;2022-12-07T03:55:29;8.40;;;5.15;;
44426;SDS011;30133;47.866;-4.222;2022-12-07T03:58:03;7.80;;;4.32;;
44426;SDS011;30133;47.866;-4.222;2022-12-07T04:00:36;6.05;;;3.92;;
44426;SDS011;30133;47.866;-4.222;2022-12-07T04:03:03;7.45;;;4.45;;
44426;SDS011;30133;47.866;-4.222;2022-12-07T04:05:29;7.32;;;4.10;;
44426;SDS011;30133;47.866;-4.222;2022-12-07T04:07:55;6.35;;;4.60;;
44426;SDS011;30133;47.866;-4.222;2022-12-07T04:10:21;6.70;;;4.57;;
44426;SDS011;30133;47.866;-4.222;2022-12-07T04:12:47;7.78;;;4.38;;
44426;SDS011;30133;47.866;-4.222;2022-12-07T04:15:13;6.47;;;4.38;;
44426;SDS011;30133;47.866;-4.222;2022-12-07T04:17:39;7.57;;;4.40;;
44426;SDS011;30133;47.866;-4.222;2022-12-07T04:20:06;7.05;;;4.53;;
44426;SDS011;30133;47.866;-4.222;2022-12-07T04:22:33;9.82;;;4.75;;
44426;SDS011;30133;47.866;-4.222;2022-12-07T04:24:59;9.85;;;4.15;;
44426;SDS011;30133;47.866;-4.222;2022-12-07T04:27:25;7.40;;;4.90;;
44426;SDS011;30133;47.866;-4.222;2022-12-07T04:29:51;7.50;;;4.32;;
44426;SDS011;30133;47.866;-4.222;2022-12-07T04:32:17;7.32;;;4.22;;
44426;SDS011;30133;47.866;-4.222;2022-12-07T04:34:43;9.32;;;4.93;;
44426;SDS011;30133;47.866;-4.222;2022-12-07T04:37:09;7.80;;;4.65;;
44426;SDS011;30133;47.866;-4.222;2022-12-07T04:39:35;5.85;;;4.28;;
44426;SDS011;30133;47.866;-4.222;2022-12-07T04:42:01;8.15;;;4.65;;
44426;SDS011;30133;47.866;-4.222;2022-12-07T04:44:30;6.82;;;4.32;;
44426;SDS011;30133;47.866;-4.222;2022-12-07T04:46:56;7.85;;;4.60;;
44426;SDS011;30133;47.866;-4.222;2022-12-07T04:49:23;7.80;;;4.68;;
44426;SDS011;30133;47.866;-4.222;2022-12-07T04:51:50;6.82;;;3.95;;
44426;SDS011;30133;47.866;-4.222;2022-12-07T04:54:16;8.35;;;4.65;;
44426;SDS011;30133;47.866;-4.222;2022-12-07T04:56:43;6.40;;;4.60;;
44426;SDS011;30133;47.866;-4.222;2022-12-07T04:59:13;7.53;;;4.20;;
44426;SDS011;30133;47.866;-4.222;2022-12-07T05:01:44;7.28;;;4.45;;
44426;SDS011;30133;47.866;-4.222;2022-12-07T05:04:10;7.47;;;4.05;;
44426;SDS011;30133;47.866;-4.222;2022-12-07T05:06:36;7.40;;;4.40;;
44426;SDS011;30133;47.866;-4.222;2022-12-07T05:09:05;6.85;;;4.60;;
44426;SDS011;30133;47.866;-4.222;2022-12-07T05:11:31;10.10;;;4.65;;
44426;SDS011;30133;47.866;-4.222;2022-12-07T05:14:03;6.65;;;4.65;;
44426;SDS011;30133;47.866;-4.222;2022-12-07T05:16:45;7.78;;;4.35;;
44426;SDS011;30133;47.866;-4.222;2022-12-07T05:19:14;4.85;;;3.63;;
44426;SDS011;30133;47.866;-4.222;2022-12-07T05:21:41;8.38;;;4.97;;
44426;SDS011;30133;47.866;-4.222;2022-12-07T05:24:08;8.48;;;4.47;;
44426;SDS011;30133;47.866;-4.222;2022-12-07T05:26:37;7.28;;;4.03;;
44426;SDS011;30133;47.866;-4.222;2022-12-07T05:29:04;7.07;;;4.38;;
44426;SDS011;30133;47.866;-4.222;2022-12-07T05:31:30;6.90;;;4.40;;
44426;SDS011;30133;47.866;-4.222;2022-12-07T05:33:57;6.53;;;4.13;;
44426;SDS011;30133;47.866;-4.222;2022-12-07T05:36:23;7.00;;;4.35;;
44426;SDS011;30133;47.866;-4.222;2022-12-07T05:38:49;8.30;;;4.25;;
44426;SDS011;30133;47.866;-4.222;2022-12-07T05:41:16;6.57;;;3.83;;
44426;SDS011;30133;47.866;-4.222;2022-12-07T05:44:02;7.30;;;4.13;;
44426;SDS011;30133;47.866;-4.222;2022-12-07T05:46:28;7.15;;;4.22;;
44426;SDS011;30133;47.866;-4.222;2022-12-07T05:48:55;8.18;;;5.18;;
44426;SDS011;30133;47.866;-4.222;2022-12-07T05:51:21;7.32;;;4.53;;
44426;SDS011;30133;47.866;-4.222;2022-12-07T05:53:47;6.40;;;4.30;;
44426;SDS011;30133;47.866;-4.222;2022-12-07T05:56:13;7.47;;;4.05;;
44426;SDS011;30133;47.866;-4.222;2022-12-07T05:58:39;7.18;;;4.55;;
44426;SDS011;30133;47.866;-4.222;2022-12-07T06:01:24;7.53;;;4.00;;
44426;SDS011;30133;47.866;-4.222;2022-12-07T06:03:50;6.97;;;4.00;;
44426;SDS011;30133;47.866;-4.222;2022-12-07T06:06:16;6.10;;;3.50;;
44426;SDS011;30133;47.866;-4.222;2022-12-07T06:08:42;5.35;;;4.20;;
44426;SDS011;30133;47.866;-4.222;2022-12-07T06:11:08;6.40;;;4.20;;
44426;SDS011;30133;47.866;-4.222;2022-12-07T06:13:53;6.25;;;4.05;;
44426;SDS011;30133;47.866;-4.222;2022-12-07T06:16:21;7.07;;;4.25;;
44426;SDS011;30133;47.866;-4.222;2022-12-07T06:18:47;8.05;;;4.47;;
44426;SDS011;30133;47.866;-4.222;2022-12-07T06:21:13;7.82;;;4.05;;
44426;SDS011;30133;47.866;-4.222;2022-12-07T06:23:39;6.03;;;4.10;;
44426;SDS011;30133;47.866;-4.222;2022-12-07T06:26:05;7.53;;;4.70;;
44426;SDS011;30133;47.866;-4.222;2022-12-07T06:28:31;7.30;;;4.10;;
44426;SDS011;30133;47.866;-4.222;2022-12-07T06:31:01;6.82;;;4.03;;
44426;SDS011;30133;47.866;-4.222;2022-12-07T06:33:29;8.00;;;4.53;;
44426;SDS011;30133;47.866;-4.222;2022-12-07T06:35:57;7.82;;;4.65;;
44426;SDS011;30133;47.866;-4.222;2022-12-07T06:38:23;5.68;;;3.75;;
44426;SDS011;30133;47.866;-4.222;2022-12-07T06:40:49;6.25;;;3.90;;
44426;SDS011;30133;47.866;-4.222;2022-12-07T06:43:15;5.95;;;3.75;;
44426;SDS011;30133;47.866;-4.222;2022-12-07T06:45:41;7.38;;;3.75;;
44426;SDS011;30133;47.866;-4.222;2022-12-07T06:48:08;5.68;;;3.38;;
44426;SDS011;30133;47.866;-4.222;2022-12-07T06:50:34;9.48;;;4.57;;
44426;SDS011;30133;47.866;-4.222;2022-12-07T06:53:00;6.07;;;3.55;;
44426;SDS011;30133;47.866;-4.222;2022-12-07T06:55:25;5.00;;;3.40;;
44426;SDS011;30133;47.866;-4.222;2022-12-07T06:57:51;6.82;;;4.00;;
44426;SDS011;30133;47.866;-4.222;2022-12-07T07:00:20;5.95;;;3.72;;
44426;SDS011;30133;47.866;-4.222;2022-12-07T07:02:46;7.00;;;3.60;;
44426;SDS011;30133;47.866;-4.222;2022-12-07T07:05:13;7.60;;;4.20;;
44426;SDS011;30133;47.866;-4.222;2022-12-07T07:07:43;5.30;;;3.75;;
44426;SDS011;30133;47.866;-4.222;2022-12-07T07:10:09;6.72;;;4.07;;
44426;SDS011;30133;47.866;-4.222;2022-12-07T07:12:35;5.15;;;3.80;;
44426;SDS011;30133;47.866;-4.222;2022-12-07T07:15:01;5.55;;;3.47;;
44426;SDS011;30133;47.866;-4.222;2022-12-07T07:17:28;6.82;;;4.10;;
44426;SDS011;30133;47.866;-4.222;2022-12-07T07:19:53;7.72;;;4.13;;
44426;SDS011;30133;47.866;-4.222;2022-12-07T07:22:20;6.78;;;3.65;;
44426;SDS011;30133;47.866;-4.222;2022-12-07T07:24:46;5.55;;;3.38;;
44426;SDS011;30133;47.866;-4.222;2022-12-07T07:27:12;5.22;;;3.33;;
44426;SDS011;30133;47.866;-4.222;2022-12-07T07:29:38;5.10;;;3.35;;
44426;SDS011;30133;47.866;-4.222;2022-12-07T07:32:04;7.10;;;4.40;;
44426;SDS011;30133;47.866;-4.222;2022-12-07T07:34:30;5.18;;;3.47;;
44426;SDS011;30133;47.866;-4.222;2022-12-07T07:36:56;5.40;;;3.67;;
44426;SDS011;30133;47.866;-4.222;2022-12-07T07:39:23;4.45;;;3.45;;
44426;SDS011;30133;47.866;-4.222;2022-12-07T07:41:49;5.13;;;3.40;;
44426;SDS011;30133;47.866;-4.222;2022-12-07T07:44:16;6.00;;;3.88;;
44426;SDS011;30133;47.866;-4.222;2022-12-07T07:46:43;4.30;;;3.35;;
44426;SDS011;30133;47.866;-4.222;2022-12-07T07:49:10;6.05;;;3.75;;
44426;SDS011;30133;47.866;-4.222;2022-12-07T07:51:36;6.15;;;3.55;;
44426;SDS011;30133;47.866;-4.222;2022-12-07T07:54:02;5.32;;;3.22;;
44426;SDS011;30133;47.866;-4.222;2022-12-07T07:56:29;5.53;;;3.33;;
44426;SDS011;30133;47.866;-4.222;2022-12-07T07:58:55;8.57;;;3.70;;
44426;SDS011;30133;47.866;-4.222;2022-12-07T08:01:21;5.90;;;3.60;;
44426;SDS011;30133;47.866;-4.222;2022-12-07T08:03:47;5.50;;;3.33;;
44426;SDS011;30133;47.866;-4.222;2022-12-07T08:06:14;5.82;;;4.03;;
44426;SDS011;30133;47.866;-4.222;2022-12-07T08:08:40;5.07;;;3.35;;
44426;SDS011;30133;47.866;-4.222;2022-12-07T08:11:08;7.28;;;4.05;;
44426;SDS011;30133;47.866;-4.222;2022-12-07T08:13:34;6.78;;;3.28;;
44426;SDS011;30133;47.866;-4.222;2022-12-07T08:16:08;6.82;;;4.65;;
44426;SDS011;30133;47.866;-4.222;2022-12-07T08:18:36;7.72;;;3.92;;
44426;SDS011;30133;47.866;-4.222;2022-12-07T08:21:04;7.88;;;3.75;;
44426;SDS011;30133;47.866;-4.222;2022-12-07T08:23:31;8.98;;;3.90;;
44426;SDS011;30133;47.866;-4.222;2022-12-07T08:26:09;5.22;;;3.13;;
44426;SDS011;30133;47.866;-4.222;2022-12-07T08:28:38;4.78;;;3.05;;
44426;SDS011;30133;47.866;-4.222;2022-12-07T08:31:05;7.25;;;3.13;;
44426;SDS011;30133;47.866;-4.222;2022-12-07T08:33:41;6.63;;;3.17;;
44426;SDS011;30133;47.866;-4.222;2022-12-07T08:36:08;5.93;;;3.53;;
44426;SDS011;30133;47.866;-4.222;2022-12-07T08:38:38;7.35;;;4.05;;
44426;SDS011;30133;47.866;-4.222;2022-12-07T08:41:06;5.53;;;3.45;;
44426;SDS011;30133;47.866;-4.222;2022-12-07T08:43:33;6.22;;;3.88;;
44426;SDS011;30133;47.866;-4.222;2022-12-07T08:48:45;7.35;;;3.25;;
44426;SDS011;30133;47.866;-4.222;2022-12-07T08:51:20;4.88;;;3.20;;
44426;SDS011;30133;47.866;-4.222;2022-12-07T08:53:48;7.35;;;3.35;;
44426;SDS011;30133;47.866;-4.222;2022-12-07T08:56:15;5.97;;;3.10;;
44426;SDS011;30133;47.866;-4.222;2022-12-07T08:58:41;5.65;;;3.17;;
44426;SDS011;30133;47.866;-4.222;2022-12-07T09:01:08;6.25;;;3.38;;
44426;SDS011;30133;47.866;-4.222;2022-12-07T09:03:34;9.38;;;3.30;;
44426;SDS011;30133;47.866;-4.222;2022-12-07T09:06:01;4.38;;;3.22;;
44426;SDS011;30133;47.866;-4.222;2022-12-07T09:08:30;5.75;;;3.28;;
44426;SDS011;30133;47.866;-4.222;2022-12-07T09:11:01;6.97;;;2.80;;
44426;SDS011;30133;47.866;-4.222;2022-12-07T09:13:27;9.48;;;2.85;;
44426;SDS011;30133;47.866;-4.222;2022-12-07T09:15:53;6.47;;;2.92;;
44426;SDS011;30133;47.866;-4.222;2022-12-07T09:18:19;4.93;;;2.90;;
44426;SDS011;30133;47.866;-4.222;2022-12-07T09:20:45;11.70;;;2.92;;
44426;SDS011;30133;47.866;-4.222;2022-12-07T09:23:12;6.40;;;3.40;;
44426;SDS011;30133;47.866;-4.222;2022-12-07T09:25:38;6.45;;;3.45;;
44426;SDS011;30133;47.866;-4.222;2022-12-07T09:28:05;4.72;;;2.55;;
44426;SDS011;30133;47.866;-4.222;2022-12-07T09:30:32;10.43;;;3.20;;
44426;SDS011;30133;47.866;-4.222;2022-12-07T09:33:02;7.05;;;3.67;;
44426;SDS011;30133;47.866;-4.222;2022-12-07T09:35:28;6.13;;;3.25;;
44426;SDS011;30133;47.866;-4.222;2022-12-07T09:37:56;5.28;;;3.17;;
44426;SDS011;30133;47.866;-4.222;2022-12-07T09:40:27;8.63;;;2.70;;
44426;SDS011;30133;47.866;-4.222;2022-12-07T09:42:54;6.93;;;3.38;;
44426;SDS011;30133;47.866;-4.222;2022-12-07T09:45:35;6.53;;;3.03;;
44426;SDS011;30133;47.866;-4.222;2022-12-07T09:48:02;8.73;;;2.72;;
44426;SDS011;30133;47.866;-4.222;2022-12-07T09:50:36;6.35;;;3.08;;
44426;SDS011;30133;47.866;-4.222;2022-12-07T09:53:09;4.00;;;2.53;;
44426;SDS011;30133;47.866;-4.222;2022-12-07T09:55:49;4.97;;;3.03;;
44426;SDS011;30133;47.866;-4.222;2022-12-07T09:58:25;8.32;;;3.20;;
44426;SDS011;30133;47.866;-4.222;2022-12-07T10:00:55;5.40;;;2.65;;
44426;SDS011;30133;47.866;-4.222;2022-12-07T10:03:26;4.78;;;2.65;;
44426;SDS011;30133;47.866;-4.222;2022-12-07T10:05:53;7.22;;;2.90;;
44426;SDS011;30133;47.866;-4.222;2022-12-07T10:08:20;6.65;;;3.15;;
44426;SDS011;30133;47.866;-4.222;2022-12-07T10:10:50;6.38;;;2.63;;
44426;SDS011;30133;47.866;-4.222;2022-12-07T10:13:19;6.00;;;2.95;;
44426;SDS011;30133;47.866;-4.222;2022-12-07T10:15:50;3.55;;;2.67;;
44426;SDS011;30133;47.866;-4.222;2022-12-07T10:18:26;7.88;;;4.63;;
44426;SDS011;30133;47.866;-4.222;2022-12-07T10:31:50;4.18;;;2.78;;
44426;SDS011;30133;47.866;-4.222;2022-12-07T10:34:30;4.97;;;2.67;;
44426;SDS011;30133;47.866;-4.222;2022-12-07T10:39:44;11.23;;;3.47;;
44426;SDS011;30133;47.866;-4.222;2022-12-07T10:42:18;14.02;;;2.58;;
44426;SDS011;30133;47.866;-4.222;2022-12-07T10:44:49;10.77;;;2.95;;
44426;SDS011;30133;47.866;-4.222;2022-12-07T10:59:51;6.28;;;2.65;;
44426;SDS011;30133;47.866;-4.222;2022-12-07T11:02:49;8.35;;;2.53;;
44426;SDS011;30133;47.866;-4.222;2022-12-07T11:14:22;3.83;;;2.72;;
44426;SDS011;30133;47.866;-4.222;2022-12-07T11:17:20;4.45;;;2.63;;
44426;SDS011;30133;47.866;-4.222;2022-12-07T11:38:18;6.28;;;2.13;;
44426;SDS011;30133;47.866;-4.222;2022-12-07T11:41:03;2.80;;;2.08;;
44426;SDS011;30133;47.866;-4.222;2022-12-07T11:44:06;3.58;;;2.17;;
44426;SDS011;30133;47.866;-4.222;2022-12-07T11:46:52;2.00;;;1.60;;
44426;SDS011;30133;47.866;-4.222;2022-12-07T11:49:40;5.20;;;2.85;;
44426;SDS011;30133;47.866;-4.222;2022-12-07T11:52:55;8.18;;;2.20;;
44426;SDS011;30133;47.866;-4.222;2022-12-07T11:55:57;4.53;;;2.35;;
44426;SDS011;30133;47.866;-4.222;2022-12-07T12:06:39;7.60;;;1.98;;
44426;SDS011;30133;47.866;-4.222;2022-12-07T12:09:27;3.97;;;2.38;;
44426;SDS011;30133;47.866;-4.222;2022-12-07T12:15:16;3.05;;;1.80;;
44426;SDS011;30133;47.866;-4.222;2022-12-07T12:18:00;5.47;;;2.00;;
44426;SDS011;30133;47.866;-4.222;2022-12-07T12:26:19;2.17;;;1.65;;
44426;SDS011;30133;47.866;-4.222;2022-12-07T12:28:58;3.70;;;1.58;;
44426;SDS011;30133;47.866;-4.222;2022-12-07T12:31:42;2.80;;;1.50;;
44426;SDS011;30133;47.866;-4.222;2022-12-07T12:36:55;5.00;;;2.00;;
44426;SDS011;30133;47.866;-4.222;2022-12-07T12:39:21;4.15;;;2.03;;
44426;SDS011;30133;47.866;-4.222;2022-12-07T12:50:23;2.30;;;1.58;;
44426;SDS011;30133;47.866;-4.222;2022-12-07T12:58:29;2.25;;;1.73;;
44426;SDS011;30133;47.866;-4.222;2022-12-07T13:03:54;2.75;;;1.63;;
44426;SDS011;30133;47.866;-4.222;2022-12-07T13:08:50;4.63;;;2.03;;
44426;SDS011;30133;47.866;-4.222;2022-12-07T13:11:28;3.05;;;1.60;;
44426;SDS011;30133;47.866;-4.222;2022-12-07T13:18:01;3.03;;;1.67;;
44426;SDS011;30133;47.866;-4.222;2022-12-07T13:20:07;2.10;;;1.65;;
44426;SDS011;30133;47.866;-4.222;2022-12-07T13:22:39;2.38;;;1.58;;
44426;SDS011;30133;47.866;-4.222;2022-12-07T13:28:19;1.77;;;1.20;;
44426;SDS011;30133;47.866;-4.222;2022-12-07T13:31:00;2.15;;;1.42;;
44426;SDS011;30133;47.866;-4.222;2022-12-07T13:34:26;9.93;;;1.80;;
44426;SDS011;30133;47.866;-4.222;2022-12-07T13:37:00;5.20;;;1.73;;
44426;SDS011;30133;47.866;-4.222;2022-12-07T13:39:57;1.65;;;1.00;;
44426;SDS011;30133;47.866;-4.222;2022-12-07T13:42:43;3.20;;;1.52;;
44426;SDS011;30133;47.866;-4.222;2022-12-07T13:45:30;9.00;;;1.63;;
44426;SDS011;30133;47.866;-4.222;2022-12-07T13:48:36;1.85;;;0.98;;
44426;SDS011;30133;47.866;-4.222;2022-12-07T13:51:14;2.95;;;1.77;;
44426;SDS011;30133;47.866;-4.222;2022-12-07T13:53:52;3.40;;;1.65;;
44426;SDS011;30133;47.866;-4.222;2022-12-07T13:56:28;6.75;;;1.75;;
44426;SDS011;30133;47.866;-4.222;2022-12-07T13:58:59;6.03;;;1.70;;
44426;SDS011;30133;47.866;-4.222;2022-12-07T14:01:28;9.52;;;1.38;;
44426;SDS011;30133;47.866;-4.222;2022-12-07T14:04:17;2.70;;;1.42;;
44426;SDS011;30133;47.866;-4.222;2022-12-07T14:06:50;2.47;;;1.63;;
44426;SDS011;30133;47.866;-4.222;2022-12-07T14:09:21;16.38;;;1.48;;
44426;SDS011;30133;47.866;-4.222;2022-12-07T14:11:52;6.68;;;1.25;;
44426;SDS011;30133;47.866;-4.222;2022-12-07T14:14:22;9.43;;;1.42;;
44426;SDS011;30133;47.866;-4.222;2022-12-07T14:16:56;3.00;;;1.27;;
44426;SDS011;30133;47.866;-4.222;2022-12-07T14:19:48;1.90;;;1.13;;
44426;SDS011;30133;47.866;-4.222;2022-12-07T14:22:36;3.60;;;1.65;;
44426;SDS011;30133;47.866;-4.222;2022-12-07T14:27:39;2.35;;;1.33;;
44426;SDS011;30133;47.866;-4.222;2022-12-07T14:30:20;9.32;;;1.58;;
44426;SDS011;30133;47.866;-4.222;2022-12-07T14:32:48;8.05;;;2.03;;
44426;SDS011;30133;47.866;-4.222;2022-12-07T14:35:23;2.22;;;1.38;;
44426;SDS011;30133;47.866;-4.222;2022-12-07T14:37:59;3.65;;;1.73;;
44426;SDS011;30133;47.866;-4.222;2022-12-07T14:40:28;1.80;;;1.17;;
44426;SDS011;30133;47.866;-4.222;2022-12-07T14:42:56;4.15;;;1.65;;
44426;SDS011;30133;47.866;-4.222;2022-12-07T14:45:28;2.97;;;1.20;;
44426;SDS011;30133;47.866;-4.222;2022-12-07T14:47:54;3.55;;;1.33;;
44426;SDS011;30133;47.866;-4.222;2022-12-07T14:50:21;3.00;;;1.55;;
44426;SDS011;30133;47.866;-4.222;2022-12-07T14:52:58;3.35;;;1.40;;
44426;SDS011;30133;47.866;-4.222;2022-12-07T14:55:35;5.28;;;1.35;;
44426;SDS011;30133;47.866;-4.222;2022-12-07T14:58:01;11.38;;;1.95;;
44426;SDS011;30133;47.866;-4.222;2022-12-07T15:00:28;20.08;;;1.75;;
44426;SDS011;30133;47.866;-4.222;2022-12-07T15:02:54;5.65;;;1.95;;
44426;SDS011;30133;47.866;-4.222;2022-12-07T15:05:21;10.98;;;1.63;;
44426;SDS011;30133;47.866;-4.222;2022-12-07T15:07:48;7.63;;;1.45;;
44426;SDS011;30133;47.866;-4.222;2022-12-07T15:10:24;6.30;;;1.83;;
44426;SDS011;30133;47.866;-4.222;2022-12-07T15:13:00;3.20;;;1.58;;
44426;SDS011;30133;47.866;-4.222;2022-12-07T15:15:49;4.53;;;2.00;;
44426;SDS011;30133;47.866;-4.222;2022-12-07T15:18:18;3.90;;;1.40;;
44426;SDS011;30133;47.866;-4.222;2022-12-07T15:20:45;5.07;;;1.98;;
44426;SDS011;30133;47.866;-4.222;2022-12-07T15:23:12;3.20;;;1.40;;
44426;SDS011;30133;47.866;-4.222;2022-12-07T15:25:42;3.35;;;1.88;;
44426;SDS011;30133;47.866;-4.222;2022-12-07T15:28:10;4.55;;;1.75;;
44426;SDS011;30133;47.866;-4.222;2022-12-07T15:30:40;9.57;;;1.92;;
44426;SDS011;30133;47.866;-4.222;2022-12-07T15:33:08;3.80;;;1.88;;
44426;SDS011;30133;47.866;-4.222;2022-12-07T15:35:40;6.18;;;1.92;;
44426;SDS011;30133;47.866;-4.222;2022-12-07T15:38:10;23.37;;;1.67;;
44426;SDS011;30133;47.866;-4.222;2022-12-07T15:40:50;6.05;;;1.80;;
44426;SDS011;30133;47.866;-4.222;2022-12-07T15:43:17;2.45;;;1.65;;
44426;SDS011;30133;47.866;-4.222;2022-12-07T15:46:02;9.23;;;2.88;;
44426;SDS011;30133;47.866;-4.222;2022-12-07T15:48:38;3.10;;;1.85;;
44426;SDS011;30133;47.866;-4.222;2022-12-07T15:51:05;3.38;;;1.80;;
44426;SDS011;30133;47.866;-4.222;2022-12-07T15:53:34;2.30;;;1.40;;
44426;SDS011;30133;47.866;-4.222;2022-12-07T15:56:05;6.70;;;1.70;;
44426;SDS011;30133;47.866;-4.222;2022-12-07T15:58:33;3.20;;;1.67;;
44426;SDS011;30133;47.866;-4.222;2022-12-07T16:01:09;5.72;;;1.80;;
44426;SDS011;30133;47.866;-4.222;2022-12-07T16:03:43;4.75;;;1.92;;
44426;SDS011;30133;47.866;-4.222;2022-12-07T16:06:17;4.63;;;1.60;;
44426;SDS011;30133;47.866;-4.222;2022-12-07T16:08:45;4.55;;;1.80;;
44426;SDS011;30133;47.866;-4.222;2022-12-07T16:11:12;4.03;;;2.47;;
44426;SDS011;30133;47.866;-4.222;2022-12-07T16:13:41;3.30;;;1.58;;
44426;SDS011;30133;47.866;-4.222;2022-12-07T16:16:11;33.65;;;2.80;;
44426;SDS011;30133;47.866;-4.222;2022-12-07T16:18:42;10.20;;;2.03;;
44426;SDS011;30133;47.866;-4.222;2022-12-07T16:21:09;8.70;;;1.80;;
44426;SDS011;30133;47.866;-4.222;2022-12-07T16:23:44;4.90;;;2.03;;
44426;SDS011;30133;47.866;-4.222;2022-12-07T16:26:24;3.50;;;1.67;;
44426;SDS011;30133;47.866;-4.222;2022-12-07T16:28:53;12.70;;;1.95;;
44426;SDS011;30133;47.866;-4.222;2022-12-07T16:31:25;3.00;;;1.90;;
44426;SDS011;30133;47.866;-4.222;2022-12-07T16:33:54;5.57;;;1.70;;
44426;SDS011;30133;47.866;-4.222;2022-12-07T16:36:24;5.95;;;2.03;;
44426;SDS011;30133;47.866;-4.222;2022-12-07T16:38:53;5.03;;;1.75;;
44426;SDS011;30133;47.866;-4.222;2022-12-07T16:41:19;5.63;;;1.98;;
44426;SDS011;30133;47.866;-4.222;2022-12-07T16:43:45;11.00;;;2.17;;
44426;SDS011;30133;47.866;-4.222;2022-12-07T16:46:12;6.40;;;1.92;;
44426;SDS011;30133;47.866;-4.222;2022-12-07T16:48:41;11.65;;;2.30;;
44426;SDS011;30133;47.866;-4.222;2022-12-07T16:51:11;5.20;;;2.28;;
44426;SDS011;30133;47.866;-4.222;2022-12-07T16:53:39;3.50;;;1.80;;
44426;SDS011;30133;47.866;-4.222;2022-12-07T16:56:11;3.63;;;2.03;;
44426;SDS011;30133;47.866;-4.222;2022-12-07T17:01:18;8.80;;;2.20;;
44426;SDS011;30133;47.866;-4.222;2022-12-07T17:03:53;4.60;;;2.20;;
44426;SDS011;30133;47.866;-4.222;2022-12-07T17:06:21;8.55;;;2.00;;
44426;SDS011;30133;47.866;-4.222;2022-12-07T17:08:50;4.32;;;1.77;;
44426;SDS011;30133;47.866;-4.222;2022-12-07T17:11:29;9.27;;;1.90;;
44426;SDS011;30133;47.866;-4.222;2022-12-07T17:13:57;4.53;;;2.20;;
44426;SDS011;30133;47.866;-4.222;2022-12-07T17:16:46;5.20;;;2.10;;
44426;SDS011;30133;47.866;-4.222;2022-12-07T17:19:17;8.68;;;2.20;;
44426;SDS011;30133;47.866;-4.222;2022-12-07T17:21:44;7.93;;;2.17;;
44426;SDS011;30133;47.866;-4.222;2022-12-07T17:24:12;3.08;;;1.80;;
44426;SDS011;30133;47.866;-4.222;2022-12-07T17:26:42;3.92;;;1.80;;
44426;SDS011;30133;47.866;-4.222;2022-12-07T17:29:12;4.60;;;1.95;;
44426;SDS011;30133;47.866;-4.222;2022-12-07T17:31:41;2.95;;;1.67;;
44426;SDS011;30133;47.866;-4.222;2022-12-07T17:34:09;3.35;;;1.83;;